This is the latest recevied weather packets stored in our database for station/object KE1THD. If no packets are shown the sender has not sent any weather packets the latest 10 day(s).
| Time | Temp. | Humidity | Pressure | Rain* | Wind** | Luminosity | Snow |
|---|---|---|---|---|---|---|---|
| 1777336716 | 18.33° C | 99% | 1001.2 hPa | 0 mm | - | 12 W/m² | - |
| 1777336414 | 18.33° C | 99% | 1001 hPa | 0 mm | - | 26 W/m² | - |
| 1777336112 | 18.33° C | 98% | 1000.8 hPa | 0 mm | - | 42 W/m² | - |
| 1777335807 | 18.33° C | 98% | 1000.7 hPa | 0 mm | - | 54 W/m² | - |
| 1777335506 | 18.33° C | 98% | 1000.7 hPa | 0 mm | - | 45 W/m² | - |
| 1777335202 | 18.33° C | 98% | 1001.1 hPa | 0 mm | - | 36 W/m² | - |
| 1777334900 | 18.89° C | 98% | 1001.1 hPa | 0 mm | - | 42 W/m² | - |
| 1777334597 | 18.89° C | 97% | 1000.8 hPa | 0 mm | - | 50 W/m² | - |
| 1777334294 | 18.89° C | 97% | 1000.4 hPa | 0 mm | - | 57 W/m² | - |
| 1777333989 | 18.89° C | 97% | 1000.3 hPa | 0 mm | - | 77 W/m² | - |
| 1777333685 | 18.89° C | 97% | 1000.4 hPa | 0 mm | - | 98 W/m² | - |
| 1777333382 | 18.33° C | 96% | 1000.6 hPa | 0 mm | - | 135 W/m² | - |
| 1777333080 | 17.78° C | 94% | 1000.7 hPa | 0 mm | - | 173 W/m² | - |
| 1777332777 | 17.22° C | 93% | 1000.7 hPa | 0 mm | - | 114 W/m² | - |
| 1777332474 | 17.22° C | 92% | 1000.8 hPa | 0 mm | - | 53 W/m² | - |
| 1777332170 | 17.78° C | 91% | 1000.8 hPa | 7.87 mm | - | 80 W/m² | - |
| 1777331868 | 17.78° C | 90% | 1000.8 hPa | 13.72 mm | - | 105 W/m² | - |
| 1777331565 | 17.78° C | 88% | 1001 hPa | 13.21 mm | - | 67 W/m² | - |
| 1777331263 | 19.44° C | 89% | 1001.3 hPa | 25.91 mm | - | 68 W/m² | - |
| 1777330960 | 20° C | 86% | 1001.4 hPa | 21.59 mm | - | 53 W/m² | - |
| 1777330656 | 21.11° C | 82% | 1001.4 hPa | 3.05 mm | - | 56 W/m² | - |
| 1777330353 | 21.67° C | 78% | 1000.5 hPa | 0 mm | - | 39 W/m² | - |
| 1777330045 | 22.22° C | 76% | 999.8 hPa | 0 mm | - | 35 W/m² | - |
| 1777329745 | 22.22° C | 72% | 1000 hPa | 0 mm | - | 43 W/m² | - |
| 1777329443 | 22.22° C | 72% | 1000.4 hPa | 0 mm | - | 60 W/m² | - |
* Rain latest hour (hover to see other rain measurements)
** Current wind speed in m/s (hover to see current wind gust speed)